createdAt,value
2018-04-07T14:48:04.435Z,3.80
2018-04-07T14:48:42.448Z,4.15
2018-04-07T14:49:16.009Z,3.70
2018-04-07T14:50:50.423Z,3.75
2018-04-07T14:51:59.026Z,3.83
2018-04-07T14:53:07.779Z,3.10
2018-04-07T14:54:16.499Z,3.77
2018-04-07T14:55:27.307Z,3.50
2018-04-07T14:56:36.163Z,3.47
2018-04-07T14:57:44.935Z,4.10
2018-04-07T14:58:53.623Z,4.10
2018-04-07T15:00:02.526Z,4.03
2018-04-07T15:01:11.892Z,3.40
2018-04-07T15:02:20.709Z,3.70
2018-04-07T15:03:30.390Z,4.05
2018-04-07T15:04:39.325Z,3.47
2018-04-07T15:05:52.173Z,4.20
2018-04-07T15:07:01.053Z,3.75
2018-04-07T15:08:10.488Z,3.97
2018-04-07T15:09:19.183Z,3.50
2018-04-07T15:10:28.071Z,3.87
2018-04-07T15:11:36.810Z,4.00
2018-04-07T15:12:50.417Z,3.78
2018-04-07T15:14:00.084Z,4.05
2018-04-07T15:15:13.015Z,5.07
2018-04-07T15:16:23.800Z,3.87
2018-04-07T15:17:33.677Z,3.65
2018-04-07T15:18:43.205Z,3.97
2018-04-07T15:19:52.786Z,6.32
2018-04-07T15:21:01.700Z,3.92
2018-04-07T15:22:10.347Z,4.18
2018-04-07T15:23:20.050Z,4.28
2018-04-07T15:24:29.463Z,4.20
2018-04-07T15:25:38.067Z,3.90
2018-04-07T15:26:47.790Z,4.15
2018-04-07T15:27:56.485Z,4.50
2018-04-07T15:29:06.146Z,4.95
2018-04-07T15:30:15.011Z,4.80
2018-04-07T15:31:23.958Z,4.85
2018-04-07T15:32:32.637Z,4.00
2018-04-07T15:33:42.306Z,3.90
2018-04-07T15:34:55.946Z,4.15
2018-04-07T15:36:04.915Z,4.20
2018-04-07T15:37:13.650Z,4.18
2018-04-07T15:38:22.397Z,3.78
2018-04-07T15:39:32.177Z,3.87
2018-04-07T15:40:41.663Z,4.12
2018-04-07T15:41:50.378Z,3.60
2018-04-07T15:42:59.203Z,4.05
2018-04-07T15:44:07.959Z,4.22
2018-04-07T15:45:16.809Z,4.53
2018-04-07T15:46:26.301Z,4.28
2018-04-07T15:47:35.340Z,4.70
2018-04-07T15:48:45.784Z,4.05
2018-04-07T15:49:56.657Z,4.55
2018-04-07T15:51:10.677Z,4.50
2018-04-07T15:52:20.252Z,4.62
2018-04-07T15:53:29.381Z,5.15
2018-04-07T15:54:38.548Z,4.40
2018-04-07T15:55:48.484Z,4.35
2018-04-07T15:56:57.388Z,4.60
2018-04-07T15:58:11.534Z,4.62
2018-04-07T15:59:20.296Z,5.70
2018-04-07T16:00:29.127Z,4.78
2018-04-07T16:01:42.322Z,4.40
2018-04-07T16:02:51.088Z,4.53
2018-04-07T16:04:00.658Z,4.43
2018-04-07T16:05:15.545Z,4.60
2018-04-07T16:06:24.284Z,4.95
2018-04-07T16:07:38.056Z,4.70
2018-04-07T16:08:47.861Z,5.07
2018-04-07T16:09:56.639Z,5.10
2018-04-07T16:11:05.707Z,5.00
2018-04-07T16:12:15.482Z,4.95
2018-04-07T16:13:28.650Z,5.10
2018-04-07T16:14:37.620Z,4.93
2018-04-07T16:15:47.458Z,5.07
2018-04-07T16:16:56.514Z,5.18
2018-04-07T16:18:05.368Z,5.47
2018-04-07T16:19:14.423Z,5.15
2018-04-07T16:20:23.201Z,5.25
2018-04-07T16:21:32.184Z,5.22
2018-04-07T16:22:41.029Z,5.45
2018-04-07T16:23:49.780Z,5.22
2018-04-07T16:24:58.624Z,5.18
2018-04-07T16:26:07.272Z,4.90
2018-04-07T16:27:16.121Z,4.95
2018-04-07T16:28:25.134Z,4.62
2018-04-07T16:29:34.160Z,5.53
2018-04-07T16:30:43.141Z,5.60
2018-04-07T16:31:52.081Z,4.97
2018-04-07T16:33:02.366Z,5.80
2018-04-07T16:34:22.633Z,5.37
2018-04-07T16:35:31.400Z,5.33
2018-04-07T16:36:40.355Z,5.25
2018-04-07T16:37:49.363Z,5.10
2018-04-07T16:38:58.178Z,5.15
2018-04-07T16:40:07.774Z,4.75
2018-04-07T16:41:16.966Z,4.57
2018-04-07T16:42:26.376Z,4.80
2018-04-07T16:43:35.237Z,4.30
2018-04-07T16:44:44.089Z,4.72
2018-04-07T16:45:52.954Z,4.85
2018-04-07T16:47:01.827Z,6.07
2018-04-07T16:48:10.579Z,11.63
2018-04-07T16:49:19.546Z,7.90
2018-04-07T16:50:28.387Z,9.38
2018-04-07T16:51:37.851Z,7.00
2018-04-07T16:52:46.570Z,5.05
2018-04-07T16:53:55.453Z,6.05
2018-04-07T16:55:04.347Z,5.60
2018-04-07T16:56:13.115Z,4.97
2018-04-07T16:57:22.878Z,4.82
2018-04-07T16:58:31.637Z,4.72
2018-04-07T16:59:40.394Z,4.60
2018-04-07T17:00:49.114Z,5.50
2018-04-07T17:01:57.983Z,4.85
2018-04-07T17:03:06.804Z,5.40
2018-04-07T17:04:15.539Z,4.47
2018-04-07T17:05:24.329Z,4.70
2018-04-07T17:06:33.218Z,5.22
2018-04-07T17:07:42.888Z,5.22
2018-04-07T17:08:51.722Z,5.32
2018-04-07T17:10:02.237Z,5.03
2018-04-07T17:11:11.104Z,4.90
2018-04-07T17:12:20.015Z,4.62
2018-04-07T17:13:28.961Z,4.20
2018-04-07T17:14:37.952Z,4.82
2018-04-07T17:15:46.712Z,4.90
2018-04-07T17:16:55.503Z,5.03
2018-04-07T17:18:04.445Z,3.90
2018-04-07T17:19:13.765Z,4.37
2018-04-07T17:20:22.474Z,4.75
2018-04-07T17:21:31.329Z,5.05
2018-04-07T17:22:40.301Z,4.62
2018-04-07T17:23:48.972Z,4.97
2018-04-07T17:24:57.739Z,5.62
2018-04-07T17:26:07.462Z,6.03
2018-04-07T17:27:16.406Z,5.55
2018-04-07T17:28:25.081Z,6.70
2018-04-07T17:29:33.925Z,6.47
2018-04-07T17:30:42.871Z,5.57
2018-04-07T17:31:51.516Z,5.68
2018-04-07T17:33:00.324Z,6.43
2018-04-07T17:34:10.603Z,6.35
2018-04-07T17:35:19.534Z,5.78
2018-04-07T17:36:28.533Z,5.97
2018-04-07T17:37:37.250Z,6.40
2018-04-07T17:38:46.045Z,5.63
2018-04-07T17:39:55.412Z,5.53
2018-04-07T17:41:04.229Z,5.95
2018-04-07T17:42:12.990Z,6.15
2018-04-07T17:43:21.801Z,5.87
2018-04-07T17:44:30.640Z,6.30
2018-04-07T17:45:39.452Z,5.50
2018-04-07T17:46:48.470Z,5.80
2018-04-07T17:47:57.371Z,5.00
2018-04-07T17:49:06.454Z,4.77
2018-04-07T17:50:15.829Z,5.43
2018-04-07T17:51:24.584Z,4.90
2018-04-07T17:52:33.445Z,4.60
2018-04-07T17:53:42.433Z,4.78
2018-04-07T17:54:51.227Z,5.15
2018-04-07T17:56:00.121Z,5.25
2018-04-07T17:57:08.745Z,4.72
2018-04-07T17:58:17.602Z,5.47
2018-04-07T17:59:26.405Z,4.45
2018-04-07T18:00:35.418Z,5.35
2018-04-07T18:01:44.226Z,4.60
2018-04-07T18:02:52.926Z,4.68
2018-04-07T18:04:01.958Z,4.53
2018-04-07T18:05:10.818Z,4.43
2018-04-07T18:06:20.402Z,4.87
2018-04-07T18:07:29.382Z,5.03
2018-04-07T18:08:38.033Z,5.30
2018-04-07T18:09:46.730Z,5.70
2018-04-07T18:10:55.552Z,6.47
2018-04-07T18:12:05.080Z,6.25
2018-04-07T18:13:13.881Z,6.82
2018-04-07T18:14:22.593Z,6.57
2018-04-07T18:15:31.472Z,6.68
2018-04-07T18:16:40.368Z,6.43
2018-04-07T18:17:49.099Z,5.73
2018-04-07T18:18:57.901Z,5.12
2018-04-07T18:20:06.987Z,5.90
2018-04-07T18:21:16.454Z,5.47
2018-04-07T18:22:25.191Z,5.55
2018-04-07T18:23:35.006Z,5.65
2018-04-07T18:24:43.765Z,5.95
2018-04-07T18:25:53.010Z,6.12
2018-04-07T18:27:01.698Z,6.62
2018-04-07T18:28:11.186Z,5.30
2018-04-07T18:29:19.986Z,5.47
2018-04-07T18:30:28.802Z,5.55
2018-04-07T18:31:38.393Z,5.32
2018-04-07T18:32:47.272Z,6.10
2018-04-07T18:33:56.771Z,7.00
2018-04-07T18:35:05.732Z,9.10
2018-04-07T18:36:14.487Z,8.70
2018-04-07T18:37:23.926Z,11.95
2018-04-07T18:38:32.886Z,11.45
2018-04-07T18:39:41.712Z,11.65
2018-04-07T18:40:50.749Z,11.85
2018-04-07T18:41:59.461Z,11.05
2018-04-07T18:43:09.796Z,9.95
2018-04-07T18:44:18.648Z,9.98
2018-04-07T18:45:27.566Z,9.48
2018-04-07T18:46:37.194Z,9.80
2018-04-07T18:47:45.797Z,8.65
2018-04-07T18:48:54.616Z,10.13
2018-04-07T18:50:03.292Z,9.07
2018-04-07T18:51:12.200Z,7.93
2018-04-07T18:52:21.058Z,6.40
2018-04-07T18:53:30.632Z,5.30
2018-04-07T18:54:39.745Z,5.70
2018-04-07T18:55:48.602Z,5.82
2018-04-07T18:56:58.080Z,6.70
2018-04-07T18:58:07.007Z,6.62
2018-04-07T18:59:15.934Z,6.57
2018-04-07T19:00:24.862Z,10.02
2018-04-07T19:01:33.693Z,9.02
2018-04-07T19:02:42.424Z,7.10
2018-04-07T19:03:51.998Z,6.78
2018-04-07T19:05:00.807Z,6.00
2018-04-07T19:06:10.448Z,6.30
2018-04-07T19:07:19.356Z,7.37
2018-04-07T19:08:28.271Z,15.27
2018-04-07T19:09:37.898Z,8.80
2018-04-07T19:10:46.712Z,6.78
2018-04-07T19:11:55.423Z,6.53
2018-04-07T19:13:04.315Z,7.00
2018-04-07T19:14:13.051Z,8.48
2018-04-07T19:15:21.777Z,7.95
2018-04-07T19:16:30.402Z,6.72
2018-04-07T19:17:39.196Z,7.53
2018-04-07T19:18:48.151Z,7.37
2018-04-07T19:19:57.020Z,7.50
2018-04-07T19:21:05.883Z,7.50
2018-04-07T19:22:15.279Z,9.68
2018-04-07T19:23:24.747Z,11.48
2018-04-07T19:24:33.708Z,11.73
2018-04-07T19:25:43.168Z,10.20
2018-04-07T19:26:52.047Z,10.98
2018-04-07T19:28:00.890Z,9.10
2018-04-07T19:29:09.674Z,8.35
2018-04-07T19:30:18.330Z,7.45
2018-04-07T19:31:27.201Z,7.03
2018-04-07T19:32:36.001Z,6.35
2018-04-07T19:33:44.767Z,6.80
2018-04-07T19:34:53.478Z,6.18
2018-04-07T19:36:02.394Z,6.43
2018-04-07T19:37:11.870Z,6.45
2018-04-07T19:38:20.686Z,6.50
2018-04-07T19:39:29.375Z,6.25
2018-04-07T19:40:38.937Z,6.93
2018-04-07T19:41:47.632Z,6.70
2018-04-07T19:42:56.516Z,6.05
2018-04-07T19:44:05.253Z,6.85
2018-04-07T19:45:14.053Z,6.12
2018-04-07T19:46:23.008Z,11.25
2018-04-07T19:47:31.820Z,13.07
2018-04-07T19:48:41.452Z,13.70
2018-04-07T19:49:50.330Z,16.52
2018-04-07T19:50:59.108Z,14.68
2018-04-07T19:52:09.022Z,20.17
2018-04-07T19:53:18.578Z,17.65
2018-04-07T19:54:27.325Z,15.48
2018-04-07T19:55:36.092Z,18.52
2018-04-07T19:56:45.541Z,16.35
2018-04-07T19:57:55.100Z,13.35
2018-04-07T19:59:03.867Z,11.38
2018-04-07T20:00:12.598Z,10.90
2018-04-07T20:01:22.729Z,20.80
2018-04-07T20:02:31.825Z,34.25
2018-04-07T20:03:41.313Z,35.72
2018-04-07T20:04:50.862Z,28.95
2018-04-07T20:05:59.719Z,19.37
2018-04-07T20:07:08.410Z,22.25
2018-04-07T20:08:17.976Z,35.33
2018-04-07T20:09:26.593Z,16.42
2018-04-07T20:10:35.466Z,36.97
2018-04-07T20:11:45.118Z,39.53
2018-04-07T20:12:53.846Z,45.63
2018-04-07T20:14:02.826Z,55.08
2018-04-07T20:15:11.475Z,87.45
2018-04-07T20:16:20.488Z,56.50
2018-04-07T20:17:29.266Z,41.17
2018-04-07T20:18:38.388Z,40.53
2018-04-07T20:19:47.376Z,32.17
2018-04-07T20:20:57.076Z,23.80
2018-04-07T20:22:06.421Z,17.73
2018-04-07T20:23:16.145Z,13.30
2018-04-07T20:24:24.811Z,11.27
2018-04-07T20:25:34.515Z,12.55
2018-04-07T20:26:44.177Z,12.43
2018-04-07T20:27:52.991Z,11.90
2018-04-07T20:29:01.696Z,11.00
2018-04-07T20:30:10.341Z,10.23
2018-04-07T20:31:19.914Z,8.43
2018-04-07T20:32:29.046Z,9.27
2018-04-07T20:33:38.055Z,8.65
2018-04-07T20:34:46.958Z,10.45
2018-04-07T20:35:56.015Z,9.65
2018-04-07T20:37:05.130Z,10.05
2018-04-07T20:38:14.781Z,11.45
2018-04-07T20:39:23.849Z,12.15
2018-04-07T20:40:33.523Z,12.70
2018-04-07T20:41:42.440Z,12.80
2018-04-07T20:42:51.283Z,12.32
2018-04-07T20:44:00.981Z,9.48
2018-04-07T20:45:10.709Z,11.00
2018-04-07T20:46:19.625Z,11.85
2018-04-07T20:47:28.452Z,12.55
2018-04-07T20:48:38.110Z,10.85
2018-04-07T20:49:46.918Z,9.63
2018-04-07T20:50:55.686Z,8.93
2018-04-07T20:52:05.288Z,8.93
2018-04-07T20:53:14.082Z,9.13
2018-04-07T20:54:23.567Z,8.90
2018-04-07T20:55:32.480Z,8.00
2018-04-07T20:56:41.202Z,9.18
2018-04-07T20:57:50.853Z,10.07
2018-04-07T20:58:59.658Z,9.02
2018-04-07T21:00:08.799Z,10.43
2018-04-07T21:01:17.697Z,11.43
2018-04-07T21:02:26.458Z,10.27
2018-04-07T21:03:36.301Z,9.57
2018-04-07T21:04:45.942Z,10.07
2018-04-07T21:05:54.662Z,8.50
2018-04-07T21:07:03.954Z,8.20
2018-04-07T21:08:12.767Z,8.43
2018-04-07T21:09:21.713Z,8.85
2018-04-07T21:10:30.437Z,8.55
2018-04-07T21:11:39.389Z,9.23
2018-04-07T21:12:48.779Z,11.10
2018-04-07T21:13:57.642Z,9.65
2018-04-07T21:15:06.708Z,9.48
2018-04-07T21:16:15.406Z,8.60
2018-04-07T21:17:24.138Z,8.90
2018-04-07T21:18:33.681Z,8.50
2018-04-07T21:19:42.643Z,7.70
2018-04-07T21:20:51.878Z,8.43
2018-04-07T21:22:00.749Z,7.37
2018-04-07T21:23:10.505Z,8.93
2018-04-07T21:24:19.374Z,8.90
2018-04-07T21:25:28.518Z,9.68
2018-04-07T21:26:38.016Z,9.27
2018-04-07T21:27:46.607Z,10.10
2018-04-07T21:28:56.501Z,9.77
2018-04-07T21:30:06.380Z,10.43
2018-04-07T21:31:15.244Z,10.40
2018-04-07T21:32:24.431Z,10.02
2018-04-07T21:33:33.231Z,10.15
2018-04-07T21:34:42.306Z,10.10
2018-04-07T21:35:51.009Z,10.63
2018-04-07T21:37:00.133Z,11.07
2018-04-07T21:38:09.301Z,10.07
2018-04-07T21:39:18.267Z,9.65
2018-04-07T21:40:27.232Z,9.68
2018-04-07T21:41:35.892Z,9.85
2018-04-07T21:42:47.221Z,10.18
2018-04-07T21:44:00.053Z,10.40
2018-04-07T21:46:36.733Z,10.27
2018-04-07T21:47:46.692Z,9.00
2018-04-07T21:48:59.096Z,10.10
2018-04-07T21:50:31.871Z,9.18
2018-04-07T21:55:46.096Z,7.57
2018-04-07T21:57:18.396Z,7.87
2018-04-07T21:58:31.954Z,7.87
2018-04-07T22:01:59.187Z,7.65
2018-04-07T22:17:47.719Z,6.85
2018-04-07T22:18:59.094Z,6.18
2018-04-07T22:20:09.749Z,6.20
2018-04-07T22:21:19.178Z,7.05
2018-04-07T22:22:29.733Z,6.68
2018-04-07T22:23:38.950Z,7.60
2018-04-07T22:24:48.178Z,7.43
2018-04-07T22:25:58.330Z,7.45
2018-04-07T22:27:09.798Z,6.75
2018-04-07T22:28:22.502Z,6.40
2018-04-07T22:29:41.660Z,6.37
2018-04-07T22:30:53.237Z,7.40
2018-04-07T22:32:02.907Z,7.07
2018-04-07T22:33:12.708Z,7.82
2018-04-07T22:34:22.454Z,7.47
2018-04-07T22:35:33.366Z,7.90
2018-04-07T22:36:43.099Z,7.15
2018-04-07T22:37:52.739Z,8.13
2018-04-07T22:39:03.904Z,7.55
2018-04-07T22:40:21.256Z,6.75
2018-04-07T22:43:05.392Z,7.07
2018-04-07T22:44:40.432Z,7.18
2018-04-07T22:45:52.883Z,7.32
2018-04-07T22:47:07.992Z,7.80
